Terminal Aerodrome Forecast
Issued by NWS

Home | Current Version | Previous Version | Text Only | Print | Product List | Glossary On
Versions: 1 2 3 4 5 6 7 8 9 10 11 12 13 14 15 16 17 18 19 20 21 22 23 24 25 26 27 28 29 30 31 32
000
FTUS44 KHGX 010529
TAFUTS
TAF
KUTS 010529Z 0106/0206 14004KT P6SM SKC
     FM011000 16008KT P6SM MIFG SKC
      TEMPO 0111/0113 5SM BR BKN015
     FM011500 20006KT P6SM SCT035 SCT250
     FM012200 16008KT P6SM SCT050=

USA.gov is the U.S. government's official web portal to all federal, state and local government web resources and services.